SWA1214 KTUS-KABQ
Flight info
| Callsign | SWA1214 |
|---|---|
| Flight time | 0h 49m |
| Altitude | 35000 |
| Route | BURRO5 NOCHI SSO J104 TMACK/N0461F340 KALSE BRRTO1 |
| Aircraft | B38M/M-SDE1FGHILORVWXY/HB1 |
Departure
| Time | 2026-05-03 23:22 |
|---|---|
| Airport | Tucson International Airport (KTUS) |
Arrival
| Time | 2026-05-04 00:12 |
|---|---|
| Airport | Albuquerque International Sunport (KABQ) |
| Time | Latitude | Longitude | Altitude | Speed | Heading |
|---|---|---|---|---|---|
| 2026-05-03 22:51 | 32.11841 | -110.93671 | 2596 ft | 0 kts | 346° |
| 2026-05-03 23:11 | 32.11831 | -110.93667 | 2590 ft | 4 kts | 335° |
| 2026-05-03 23:11 | 32.11813 | -110.93648 | 2590 ft | 4 kts | 287° |
| 2026-05-03 23:12 | 32.11812 | -110.93618 | 2589 ft | 4 kts | 257° |
| 2026-05-03 23:12 | 32.11821 | -110.93588 | 2596 ft | 4 kts | 242° |
| 2026-05-03 23:12 | 32.11836 | -110.93563 | 2593 ft | 2 kts | 226° |
| 2026-05-03 23:12 | 32.11837 | -110.93562 | 2594 ft | 0 kts | 225° |
| 2026-05-03 23:16 | 32.11836 | -110.93563 | 2593 ft | 1 kts | 225° |
| 2026-05-03 23:16 | 32.11829 | -110.93571 | 2585 ft | 2 kts | 225° |
| 2026-05-03 23:16 | 32.11812 | -110.93591 | 2588 ft | 4 kts | 225° |
| 2026-05-03 23:17 | 32.11791 | -110.93617 | 2592 ft | 4 kts | 225° |
| 2026-05-03 23:17 | 32.11767 | -110.93645 | 2592 ft | 5 kts | 225° |
| 2026-05-03 23:17 | 32.11743 | -110.93684 | 2593 ft | 6 kts | 257° |
| 2026-05-03 23:17 | 32.11760 | -110.93736 | 2588 ft | 9 kts | 296° |
| 2026-05-03 23:18 | 32.11752 | -110.93812 | 2592 ft | 9 kts | 248° |
| 2026-05-03 23:18 | 32.11769 | -110.93881 | 2594 ft | 10 kts | 315° |
| 2026-05-03 23:18 | 32.11823 | -110.93944 | 2597 ft | 12 kts | 315° |
| 2026-05-03 23:18 | 32.11889 | -110.94021 | 2595 ft | 15 kts | 315° |
| 2026-05-03 23:19 | 32.11971 | -110.94118 | 2589 ft | 18 kts | 315° |
| 2026-05-03 23:19 | 32.12054 | -110.94215 | 2592 ft | 16 kts | 315° |
| 2026-05-03 23:19 | 32.12142 | -110.94318 | 2588 ft | 20 kts | 315° |
| 2026-05-03 23:19 | 32.12236 | -110.94430 | 2585 ft | 20 kts | 315° |
| 2026-05-03 23:20 | 32.12333 | -110.94544 | 2571 ft | 20 kts | 315° |
| 2026-05-03 23:20 | 32.12417 | -110.94643 | 2574 ft | 10 kts | 311° |
| 2026-05-03 23:20 | 32.12400 | -110.94699 | 2571 ft | 8 kts | 227° |
| 2026-05-03 23:20 | 32.12362 | -110.94746 | 2574 ft | 8 kts | 224° |
| 2026-05-03 23:21 | 32.12327 | -110.94773 | 2572 ft | 4 kts | 177° |
| 2026-05-03 23:21 | 32.12315 | -110.94764 | 2574 ft | 1 kts | 135° |
| 2026-05-03 23:21 | 32.12313 | -110.94763 | 2574 ft | 0 kts | 135° |
| 2026-05-03 23:21 | 32.12195 | -110.94626 | 2582 ft | 58 kts | 136° |
| 2026-05-03 23:22 | 32.11300 | -110.93568 | 2617 ft | 155 kts | 135° |
| 2026-05-03 23:22 | 32.10433 | -110.92558 | 2802 ft | 186 kts | 142° |
| 2026-05-03 23:22 | 32.09552 | -110.91488 | 3774 ft | 175 kts | 139° |
| 2026-05-03 23:23 | 32.08711 | -110.90476 | 4520 ft | 176 kts | 143° |
| 2026-05-03 23:23 | 32.07794 | -110.89401 | 5024 ft | 194 kts | 143° |
| 2026-05-03 23:23 | 32.06766 | -110.88220 | 5479 ft | 220 kts | 142° |
| 2026-05-03 23:23 | 32.05601 | -110.86884 | 5975 ft | 244 kts | 141° |
| 2026-05-03 23:24 | 32.04354 | -110.85433 | 6583 ft | 260 kts | 140° |
| 2026-05-03 23:24 | 32.03039 | -110.83895 | 7322 ft | 268 kts | 140° |
| 2026-05-03 23:24 | 32.01714 | -110.82344 | 8275 ft | 270 kts | 140° |
| 2026-05-03 23:24 | 32.00377 | -110.80783 | 9083 ft | 277 kts | 140° |
| 2026-05-03 23:25 | 31.98975 | -110.79201 | 9926 ft | 282 kts | 140° |
| 2026-05-03 23:25 | 31.97515 | -110.77572 | 10477 ft | 298 kts | 140° |
| 2026-05-03 23:25 | 31.95958 | -110.75832 | 10862 ft | 318 kts | 140° |
| 2026-05-03 23:25 | 31.94470 | -110.73804 | 11335 ft | 340 kts | 123° |
| 2026-05-03 23:26 | 31.93646 | -110.71162 | 12107 ft | 349 kts | 106° |
| 2026-05-03 23:26 | 31.93107 | -110.68341 | 12761 ft | 358 kts | 107° |
| 2026-05-03 23:26 | 31.92558 | -110.65445 | 13442 ft | 365 kts | 106° |
| 2026-05-03 23:26 | 31.92006 | -110.62497 | 14116 ft | 373 kts | 105° |
| 2026-05-03 23:27 | 31.91448 | -110.59503 | 14903 ft | 376 kts | 104° |
| 2026-05-03 23:27 | 31.90883 | -110.56471 | 15521 ft | 384 kts | 104° |
| 2026-05-03 23:27 | 31.90306 | -110.53389 | 16235 ft | 388 kts | 104° |
| 2026-05-03 23:27 | 31.89754 | -110.50256 | 16910 ft | 394 kts | 99° |
| 2026-05-03 23:28 | 31.89823 | -110.47019 | 17621 ft | 398 kts | 80° |
| 2026-05-03 23:28 | 31.90388 | -110.43802 | 18250 ft | 404 kts | 77° |
| 2026-05-03 23:28 | 31.90980 | -110.40581 | 18793 ft | 409 kts | 77° |
| 2026-05-03 23:28 | 31.91600 | -110.37288 | 19303 ft | 415 kts | 77° |
| 2026-05-03 23:29 | 31.92240 | -110.33952 | 19807 ft | 420 kts | 76° |
| 2026-05-03 23:29 | 31.92890 | -110.30577 | 20310 ft | 425 kts | 76° |
| 2026-05-03 23:29 | 31.93550 | -110.27156 | 20815 ft | 430 kts | 76° |
| 2026-05-03 23:29 | 31.94216 | -110.23701 | 21320 ft | 436 kts | 76° |
| 2026-05-03 23:30 | 31.94889 | -110.20200 | 21816 ft | 441 kts | 76° |
| 2026-05-03 23:30 | 31.95564 | -110.16691 | 22311 ft | 446 kts | 76° |
| 2026-05-03 23:30 | 31.96251 | -110.13109 | 22804 ft | 451 kts | 76° |
| 2026-05-03 23:30 | 31.96946 | -110.09481 | 23268 ft | 457 kts | 76° |
| 2026-05-03 23:31 | 31.97647 | -110.05814 | 23689 ft | 461 kts | 76° |
| 2026-05-03 23:31 | 31.98346 | -110.02153 | 24133 ft | 465 kts | 76° |
| 2026-05-03 23:31 | 31.99058 | -109.98417 | 24531 ft | 469 kts | 76° |
| 2026-05-03 23:31 | 31.99773 | -109.94661 | 24956 ft | 472 kts | 76° |
| 2026-05-03 23:32 | 32.00492 | -109.90874 | 25344 ft | 476 kts | 75° |
| 2026-05-03 23:32 | 32.01217 | -109.87053 | 25724 ft | 480 kts | 75° |
| 2026-05-03 23:32 | 32.01946 | -109.83203 | 26117 ft | 483 kts | 75° |
| 2026-05-03 23:32 | 32.02680 | -109.79320 | 26502 ft | 487 kts | 75° |
| 2026-05-03 23:33 | 32.03655 | -109.75523 | 26937 ft | 482 kts | 61° |
| 2026-05-03 23:33 | 32.05223 | -109.72034 | 27328 ft | 482 kts | 56° |
| 2026-05-03 23:33 | 32.06850 | -109.68548 | 27630 ft | 487 kts | 56° |
| 2026-05-03 23:33 | 32.08500 | -109.65059 | 28054 ft | 489 kts | 55° |
| 2026-05-03 23:34 | 32.10175 | -109.61544 | 28416 ft | 492 kts | 55° |
| 2026-05-03 23:34 | 32.11860 | -109.58011 | 28793 ft | 495 kts | 55° |
| 2026-05-03 23:34 | 32.13555 | -109.54456 | 29180 ft | 499 kts | 55° |
| 2026-05-03 23:34 | 32.15261 | -109.50877 | 29499 ft | 503 kts | 55° |
| 2026-05-03 23:35 | 32.16977 | -109.47273 | 29839 ft | 506 kts | 55° |
| 2026-05-03 23:35 | 32.18703 | -109.43642 | 30178 ft | 508 kts | 55° |
| 2026-05-03 23:35 | 32.20417 | -109.40035 | 30440 ft | 511 kts | 55° |
| 2026-05-03 23:35 | 32.22161 | -109.36361 | 30710 ft | 514 kts | 55° |
| 2026-05-03 23:36 | 32.23910 | -109.32673 | 30985 ft | 517 kts | 56° |
| 2026-05-03 23:36 | 32.25674 | -109.28960 | 31249 ft | 520 kts | 54° |
| 2026-05-03 23:36 | 32.27778 | -109.25532 | 31491 ft | 510 kts | 39° |
| 2026-05-03 23:36 | 32.30292 | -109.22584 | 31730 ft | 511 kts | 37° |
| 2026-05-03 23:37 | 32.32827 | -109.19620 | 31957 ft | 514 kts | 37° |
| 2026-05-03 23:37 | 32.35388 | -109.16661 | 32265 ft | 516 kts | 37° |
| 2026-05-03 23:37 | 32.37978 | -109.13687 | 32472 ft | 519 kts | 36° |
| 2026-05-03 23:37 | 32.40581 | -109.10711 | 32817 ft | 521 kts | 36° |
| 2026-05-03 23:38 | 32.43195 | -109.07716 | 33083 ft | 524 kts | 36° |
| 2026-05-03 23:38 | 32.45827 | -109.04702 | 33299 ft | 527 kts | 37° |
| 2026-05-03 23:38 | 32.48431 | -109.01713 | 33675 ft | 528 kts | 36° |
| 2026-05-03 23:38 | 32.51075 | -108.98679 | 33973 ft | 529 kts | 36° |
| 2026-05-03 23:39 | 32.53721 | -108.95636 | 34270 ft | 530 kts | 36° |
| 2026-05-03 23:39 | 32.56366 | -108.92595 | 34605 ft | 529 kts | 36° |
| 2026-05-03 23:39 | 32.59012 | -108.89549 | 34856 ft | 530 kts | 36° |
| 2026-05-03 23:39 | 32.61660 | -108.86497 | 34888 ft | 530 kts | 36° |
| 2026-05-03 23:40 | 32.66927 | -108.80424 | 34897 ft | 527 kts | 36° |
| 2026-05-03 23:40 | 32.72181 | -108.74353 | 34890 ft | 526 kts | 36° |
| 2026-05-03 23:41 | 32.77419 | -108.68288 | 34909 ft | 526 kts | 36° |
| 2026-05-03 23:41 | 32.82625 | -108.62251 | 34922 ft | 523 kts | 36° |
| 2026-05-03 23:42 | 32.87831 | -108.56206 | 34912 ft | 522 kts | 36° |
| 2026-05-03 23:42 | 32.93037 | -108.50149 | 34930 ft | 524 kts | 36° |
| 2026-05-03 23:43 | 32.98240 | -108.44084 | 34929 ft | 523 kts | 36° |
| 2026-05-03 23:43 | 33.03444 | -108.38005 | 34930 ft | 523 kts | 36° |
| 2026-05-03 23:44 | 33.08627 | -108.31945 | 34976 ft | 522 kts | 36° |
| 2026-05-03 23:44 | 33.13812 | -108.25879 | 34979 ft | 520 kts | 36° |
| 2026-05-03 23:45 | 33.18979 | -108.19815 | 34893 ft | 521 kts | 36° |
| 2026-05-03 23:45 | 33.24114 | -108.13818 | 34959 ft | 517 kts | 32° |
| 2026-05-03 23:46 | 33.26992 | -108.11404 | 34925 ft | 495 kts | 17° |
| 2026-05-03 23:46 | 33.30122 | -108.09920 | 34959 ft | 473 kts | 2° |
| 2026-05-03 23:46 | 33.33303 | -108.09334 | 34960 ft | 455 kts | 351° |
| 2026-05-03 23:46 | 33.36416 | -108.09414 | 34966 ft | 443 kts | 344° |
| 2026-05-03 23:47 | 33.39401 | -108.09981 | 34961 ft | 424 kts | 332° |
| 2026-05-03 23:47 | 33.42112 | -108.11205 | 34974 ft | 414 kts | 327° |
| 2026-05-03 23:47 | 33.47353 | -108.14033 | 34960 ft | 411 kts | 324° |
| 2026-05-03 23:48 | 33.52459 | -108.17042 | 34956 ft | 411 kts | 323° |
| 2026-05-03 23:48 | 33.57976 | -108.19242 | 34935 ft | 442 kts | 346° |
| 2026-05-03 23:49 | 33.61112 | -108.19102 | 34966 ft | 460 kts | 356° |
| 2026-05-03 23:49 | 33.64297 | -108.18224 | 34968 ft | 480 kts | 9° |
| 2026-05-03 23:49 | 33.67345 | -108.16402 | 34894 ft | 498 kts | 25° |
| 2026-05-03 23:49 | 33.70131 | -108.13911 | 34398 ft | 497 kts | 25° |
| 2026-05-03 23:50 | 33.72981 | -108.11555 | 33501 ft | 498 kts | 24° |
| 2026-05-03 23:50 | 33.74874 | -108.10021 | 32913 ft | 494 kts | 25° |
| 2026-05-03 23:50 | 33.78666 | -108.06954 | 32255 ft | 487 kts | 25° |
| 2026-05-03 23:50 | 33.81450 | -108.04695 | 31901 ft | 479 kts | 25° |
| 2026-05-03 23:51 | 33.84205 | -108.02464 | 31443 ft | 475 kts | 25° |
| 2026-05-03 23:51 | 33.86945 | -108.00252 | 30888 ft | 473 kts | 25° |
| 2026-05-03 23:51 | 33.89683 | -107.98045 | 30264 ft | 474 kts | 25° |
| 2026-05-03 23:51 | 33.92417 | -107.95846 | 29335 ft | 470 kts | 25° |
| 2026-05-03 23:52 | 33.95119 | -107.93662 | 28334 ft | 464 kts | 26° |
| 2026-05-03 23:52 | 33.97748 | -107.91532 | 27407 ft | 458 kts | 26° |
| 2026-05-03 23:52 | 34.00362 | -107.89404 | 26785 ft | 447 kts | 27° |
| 2026-05-03 23:52 | 34.02924 | -107.87313 | 26393 ft | 441 kts | 27° |
| 2026-05-03 23:53 | 34.05454 | -107.85251 | 25930 ft | 438 kts | 27° |
| 2026-05-03 23:53 | 34.07980 | -107.83202 | 25461 ft | 436 kts | 27° |
| 2026-05-03 23:53 | 34.10488 | -107.81162 | 25012 ft | 433 kts | 27° |
| 2026-05-03 23:53 | 34.12980 | -107.79135 | 24564 ft | 431 kts | 28° |
| 2026-05-03 23:54 | 34.15463 | -107.77113 | 24132 ft | 428 kts | 28° |
| 2026-05-03 23:54 | 34.17917 | -107.75111 | 23742 ft | 424 kts | 28° |
| 2026-05-03 23:54 | 34.20333 | -107.73136 | 23219 ft | 414 kts | 28° |
| 2026-05-03 23:54 | 34.22678 | -107.71210 | 22755 ft | 402 kts | 28° |
| 2026-05-03 23:55 | 34.24964 | -107.69333 | 22359 ft | 395 kts | 28° |
| 2026-05-03 23:55 | 34.27231 | -107.67478 | 21956 ft | 393 kts | 28° |
| 2026-05-03 23:55 | 34.29494 | -107.65642 | 21570 ft | 388 kts | 26° |
| 2026-05-03 23:55 | 34.31815 | -107.64107 | 21453 ft | 376 kts | 27° |
| 2026-05-03 23:56 | 34.33916 | -107.62250 | 21390 ft | 371 kts | 31° |
| 2026-05-03 23:56 | 34.36045 | -107.60399 | 21332 ft | 383 kts | 30° |
| 2026-05-03 23:56 | 34.38218 | -107.58563 | 21261 ft | 389 kts | 30° |
| 2026-05-03 23:56 | 34.40459 | -107.56694 | 21200 ft | 391 kts | 29° |
| 2026-05-03 23:57 | 34.42710 | -107.54833 | 21138 ft | 392 kts | 29° |
| 2026-05-03 23:57 | 34.44962 | -107.52977 | 21088 ft | 391 kts | 29° |
| 2026-05-03 23:57 | 34.47217 | -107.51122 | 21031 ft | 391 kts | 29° |
| 2026-05-03 23:57 | 34.49465 | -107.49272 | 20806 ft | 390 kts | 30° |
| 2026-05-03 23:58 | 34.51713 | -107.47421 | 20407 ft | 389 kts | 30° |
| 2026-05-03 23:58 | 34.53950 | -107.45578 | 19984 ft | 388 kts | 30° |
| 2026-05-03 23:58 | 34.56177 | -107.43743 | 19592 ft | 386 kts | 30° |
| 2026-05-03 23:58 | 34.58392 | -107.41916 | 19201 ft | 384 kts | 30° |
| 2026-05-03 23:59 | 34.60599 | -107.40095 | 18814 ft | 382 kts | 31° |
| 2026-05-03 23:59 | 34.62798 | -107.38280 | 18429 ft | 381 kts | 31° |
| 2026-05-03 23:59 | 34.64985 | -107.36472 | 18013 ft | 379 kts | 31° |
| 2026-05-03 23:59 | 34.67132 | -107.34698 | 17611 ft | 377 kts | 31° |
| 2026-05-04 00:00 | 34.69291 | -107.32911 | 17223 ft | 374 kts | 31° |
| 2026-05-04 00:00 | 34.71436 | -107.31136 | 16835 ft | 371 kts | 31° |
| 2026-05-04 00:00 | 34.73568 | -107.29370 | 16461 ft | 368 kts | 30° |
| 2026-05-04 00:00 | 34.75650 | -107.27644 | 16094 ft | 366 kts | 31° |
| 2026-05-04 00:01 | 34.77741 | -107.25909 | 15726 ft | 363 kts | 31° |
| 2026-05-04 00:01 | 34.79826 | -107.24179 | 15330 ft | 361 kts | 31° |
| 2026-05-04 00:01 | 34.81904 | -107.22455 | 14948 ft | 359 kts | 32° |
| 2026-05-04 00:01 | 34.83954 | -107.20749 | 14740 ft | 352 kts | 31° |
| 2026-05-04 00:02 | 34.85954 | -107.19086 | 14530 ft | 345 kts | 32° |
| 2026-05-04 00:02 | 34.87910 | -107.17444 | 14358 ft | 337 kts | 34° |
| 2026-05-04 00:02 | 34.89518 | -107.15368 | 14002 ft | 342 kts | 57° |
| 2026-05-04 00:02 | 34.90325 | -107.12681 | 13579 ft | 336 kts | 81° |
| 2026-05-04 00:03 | 34.90618 | -107.09918 | 13285 ft | 322 kts | 81° |
| 2026-05-04 00:03 | 34.90936 | -107.07234 | 13045 ft | 319 kts | 81° |
| 2026-05-04 00:03 | 34.91256 | -107.04547 | 12736 ft | 323 kts | 81° |
| 2026-05-04 00:03 | 34.91580 | -107.01825 | 12414 ft | 325 kts | 81° |
| 2026-05-04 00:04 | 34.91899 | -106.99143 | 12095 ft | 323 kts | 82° |
| 2026-05-04 00:04 | 34.92219 | -106.96446 | 11790 ft | 320 kts | 82° |
| 2026-05-04 00:04 | 34.92536 | -106.93768 | 11479 ft | 319 kts | 82° |
| 2026-05-04 00:04 | 34.92851 | -106.91104 | 11174 ft | 316 kts | 82° |
| 2026-05-04 00:05 | 34.93163 | -106.88457 | 10884 ft | 314 kts | 82° |
| 2026-05-04 00:05 | 34.93470 | -106.85849 | 10770 ft | 307 kts | 83° |
| 2026-05-04 00:05 | 34.93769 | -106.83312 | 10667 ft | 298 kts | 83° |
| 2026-05-04 00:05 | 34.94058 | -106.80849 | 10514 ft | 290 kts | 82° |
| 2026-05-04 00:06 | 34.94338 | -106.78456 | 10391 ft | 281 kts | 83° |
| 2026-05-04 00:06 | 34.94610 | -106.76133 | 10284 ft | 272 kts | 83° |
| 2026-05-04 00:06 | 34.94873 | -106.73881 | 10138 ft | 265 kts | 83° |
| 2026-05-04 00:06 | 34.95044 | -106.72421 | 10056 ft | 261 kts | 84° |
| 2026-05-04 00:07 | 34.95250 | -106.70217 | 9967 ft | 263 kts | 89° |
| 2026-05-04 00:07 | 34.95330 | -106.67988 | 9800 ft | 263 kts | 89° |
| 2026-05-04 00:07 | 34.95417 | -106.65750 | 9487 ft | 265 kts | 89° |
| 2026-05-04 00:07 | 34.95468 | -106.63496 | 9158 ft | 265 kts | 91° |
| 2026-05-04 00:08 | 34.95504 | -106.61250 | 8845 ft | 264 kts | 91° |
| 2026-05-04 00:08 | 34.95544 | -106.59022 | 8575 ft | 261 kts | 91° |
| 2026-05-04 00:08 | 34.95803 | -106.56832 | 8297 ft | 263 kts | 76° |
| 2026-05-04 00:08 | 34.96561 | -106.54819 | 7988 ft | 260 kts | 56° |
| 2026-05-04 00:09 | 34.97756 | -106.53226 | 7619 ft | 248 kts | 38° |
| 2026-05-04 00:09 | 34.99145 | -106.52149 | 7292 ft | 232 kts | 28° |
| 2026-05-04 00:09 | 35.00483 | -106.51220 | 7032 ft | 210 kts | 28° |
| 2026-05-04 00:09 | 35.01763 | -106.50659 | 6856 ft | 185 kts | 1° |
| 2026-05-04 00:10 | 35.02989 | -106.50852 | 6625 ft | 175 kts | 332° |
| 2026-05-04 00:10 | 35.03943 | -106.51718 | 6415 ft | 169 kts | 304° |
| 2026-05-04 00:10 | 35.04493 | -106.52935 | 6111 ft | 161 kts | 278° |
| 2026-05-04 00:10 | 35.04478 | -106.54286 | 5894 ft | 159 kts | 257° |
| 2026-05-04 00:11 | 35.04397 | -106.55635 | 5724 ft | 164 kts | 268° |
| 2026-05-04 00:11 | 35.04404 | -106.57036 | 5449 ft | 166 kts | 266° |
| 2026-05-04 00:11 | 35.04414 | -106.58409 | 5333 ft | 151 kts | 266° |
| 2026-05-04 00:11 | 35.04414 | -106.59576 | 5327 ft | 125 kts | 270° |
| 2026-05-04 00:12 | 35.04428 | -106.60563 | 5334 ft | 108 kts | 270° |
| 2026-05-04 00:12 | 35.04430 | -106.61228 | 5320 ft | 51 kts | 271° |
| 2026-05-04 00:12 | 35.04446 | -106.61391 | 5321 ft | 6 kts | 341° |
| 2026-05-04 00:12 | 35.04474 | -106.61386 | 5323 ft | 3 kts | 11° |
| 2026-05-04 00:13 | 35.04495 | -106.61381 | 5323 ft | 3 kts | 10° |
| 2026-05-04 00:13 | 35.04512 | -106.61379 | 5334 ft | 2 kts | 2° |
| 2026-05-04 00:13 | 35.04525 | -106.61379 | 5334 ft | 1 kts | 358° |
| 2026-05-04 00:15 | 35.04531 | -106.61380 | 5332 ft | 2 kts | 359° |
| 2026-05-04 00:15 | 35.04560 | -106.61367 | 5331 ft | 6 kts | 27° |
| 2026-05-04 00:15 | 35.04596 | -106.61339 | 5333 ft | 6 kts | 32° |
| 2026-05-04 00:16 | 35.04638 | -106.61313 | 5335 ft | 7 kts | 11° |
| 2026-05-04 00:16 | 35.04693 | -106.61312 | 5333 ft | 8 kts | 1° |
| 2026-05-04 00:16 | 35.04751 | -106.61309 | 5334 ft | 8 kts | 2° |
| 2026-05-04 00:16 | 35.04794 | -106.61309 | 5335 ft | 1 kts | 342° |
| 2026-05-04 00:17 | 35.04800 | -106.61315 | 5335 ft | 2 kts | 317° |
| 2026-05-04 00:17 | 35.04802 | -106.61337 | 5336 ft | 1 kts | 237° |
| 2026-05-04 00:17 | 35.04789 | -106.61360 | 5336 ft | 5 kts | 236° |
| 2026-05-04 00:17 | 35.04774 | -106.61390 | 5333 ft | 2 kts | 239° |
| 2026-05-04 00:18 | 35.04770 | -106.61398 | 5334 ft | 0 kts | 240° |